Aplington, Iowa
Current Conditions -  °F | °C
As of 12:15 AM on Wednesday 22 Oct 2014 (Local Time) from KIFA Reporting Station
Clear Clear  
Wind Chill:   Ceiling: Unl
Heat Index:   Visibility: 10mi
Dew Point:   Wind: 6mph
Humidity: 83%   Direction: 120°ESE
Pressure: 30.2"   Gusts: NA
Location:  42.58°N, 92.88°W
Report Text: KIFA 220515Z AUTO 12005KT 10SM CLR 06/03 A3020 RMK AO2 T00570030
Loading
Personal Weather Stations






























Interactive Weather Map
Tropical Storm Tracking
New forecast layout! Learn more

10-Day Weather Forecast

Advertisements
Track Severe Weather on mobile